createdAt,value
2024-03-08T00:00:35.898Z,96.27
2024-03-08T00:03:03.321Z,95.69
2024-03-08T00:05:30.314Z,96.40
2024-03-08T00:07:56.803Z,96.25
2024-03-08T00:10:24.920Z,96.30
2024-03-08T00:12:52.988Z,96.09
2024-03-08T00:15:20.336Z,96.39
2024-03-08T00:17:48.403Z,96.10
2024-03-08T00:20:16.352Z,96.41
2024-03-08T00:22:43.251Z,96.43
2024-03-08T00:25:10.434Z,96.05
2024-03-08T00:27:37.969Z,96.58
2024-03-08T00:30:05.365Z,96.45
2024-03-08T00:32:32.959Z,96.90
2024-03-08T00:34:59.656Z,96.56
2024-03-08T00:37:26.154Z,96.74
2024-03-08T00:39:53.102Z,96.55
2024-03-08T00:42:20.751Z,96.64
2024-03-08T00:44:47.892Z,96.67
2024-03-08T00:47:14.579Z,97.16
2024-03-08T00:49:42.652Z,97.39
2024-03-08T00:52:09.450Z,96.92
2024-03-08T00:54:39.317Z,97.09
2024-03-08T00:57:08.027Z,96.88
2024-03-08T00:59:34.959Z,97.13
2024-03-08T01:02:02.845Z,97.39
2024-03-08T01:04:30.155Z,97.07
2024-03-08T01:06:57.623Z,97.67
2024-03-08T01:09:24.863Z,97.84
2024-03-08T01:11:51.588Z,97.71
2024-03-08T01:14:18.169Z,97.45
2024-03-08T01:16:44.681Z,97.31
2024-03-08T01:19:11.303Z,97.58
2024-03-08T01:21:37.826Z,97.45
2024-03-08T01:24:04.681Z,97.78
2024-03-08T01:26:31.753Z,97.41
2024-03-08T01:28:58.263Z,98.09
2024-03-08T01:31:24.717Z,97.95
2024-03-08T01:33:51.315Z,98.02
2024-03-08T01:36:19.122Z,98.44
2024-03-08T01:38:46.118Z,97.96
2024-03-08T01:41:13.883Z,97.98
2024-03-08T01:43:40.360Z,98.21
2024-03-08T01:46:08.046Z,98.15
2024-03-08T01:48:34.832Z,98.92
2024-03-08T01:51:01.591Z,98.51
2024-03-08T01:53:30.575Z,97.94
2024-03-08T01:55:58.866Z,98.25
2024-03-08T01:58:29.398Z,98.71
2024-03-08T02:00:58.182Z,98.56
2024-03-08T02:03:24.871Z,98.51
2024-03-08T02:05:52.556Z,98.23
2024-03-08T02:08:19.897Z,99.35
2024-03-08T02:10:46.498Z,98.89
2024-03-08T02:13:13.172Z,98.24
2024-03-08T02:15:56.406Z,98.55
2024-03-08T02:18:24.580Z,99.11
2024-03-08T02:20:53.395Z,99.03
2024-03-08T02:23:21.004Z,99.75
2024-03-08T02:25:48.158Z,99.30
2024-03-08T02:28:15.780Z,99.08
2024-03-08T02:30:42.503Z,99.14
2024-03-08T02:33:12.541Z,99.63
2024-03-08T02:35:39.092Z,100.00
2024-03-08T02:38:05.703Z,100.00
2024-03-08T02:40:33.230Z,100.00
2024-03-08T02:42:59.715Z,99.51
2024-03-08T02:45:26.273Z,99.92
2024-03-08T02:47:52.988Z,99.93
2024-03-08T02:50:19.826Z,100.00
2024-03-08T02:52:47.695Z,100.00
2024-03-08T02:55:17.342Z,100.00
2024-03-08T02:57:44.797Z,100.00
2024-03-08T03:00:12.161Z,100.00
2024-03-08T03:02:38.681Z,100.00
2024-03-08T03:05:07.214Z,100.00
2024-03-08T03:07:37.065Z,100.00
2024-03-08T03:10:03.627Z,100.00
2024-03-08T03:12:31.164Z,100.00
2024-03-08T03:15:00.794Z,100.00
2024-03-08T03:17:27.728Z,100.00
2024-03-08T03:19:54.270Z,100.00
2024-03-08T03:22:20.938Z,100.00
2024-03-08T03:24:47.425Z,100.00
2024-03-08T03:27:16.238Z,100.00
2024-03-08T03:29:46.733Z,100.00
2024-03-08T03:32:13.895Z,100.00
2024-03-08T03:34:41.257Z,100.00
2024-03-08T03:37:09.707Z,100.00
2024-03-08T03:39:41.666Z,100.00
2024-03-08T03:42:08.231Z,100.00
2024-03-08T03:44:34.741Z,100.00
2024-03-08T03:47:01.928Z,100.00
2024-03-08T03:49:28.517Z,100.00
2024-03-08T03:51:54.978Z,100.00
2024-03-08T03:54:21.436Z,100.00
2024-03-08T03:56:47.954Z,100.00
2024-03-08T03:59:14.465Z,100.00
2024-03-08T04:01:44.489Z,100.00
2024-03-08T04:04:11.000Z,100.00
2024-03-08T04:06:37.507Z,100.00
2024-03-08T04:09:04.177Z,100.00
2024-03-08T04:11:31.481Z,100.00
2024-03-08T04:13:57.997Z,100.00
2024-03-08T04:16:25.611Z,100.00
2024-03-08T04:18:52.241Z,100.00
2024-03-08T04:21:20.268Z,100.00
2024-03-08T04:23:46.816Z,100.00
2024-03-08T04:26:15.561Z,100.00
2024-03-08T04:28:43.190Z,100.00
2024-03-08T04:31:09.723Z,100.00
2024-03-08T04:33:36.819Z,100.00
2024-03-08T04:36:06.286Z,100.00
2024-03-08T04:38:32.789Z,100.00
2024-03-08T04:41:00.169Z,100.00
2024-03-08T04:43:27.892Z,100.00
2024-03-08T04:45:54.696Z,100.00
2024-03-08T04:48:21.898Z,100.00
2024-03-08T04:50:48.585Z,100.00
2024-03-08T04:53:15.099Z,100.00
2024-03-08T04:55:41.627Z,100.00
2024-03-08T04:58:08.488Z,100.00
2024-03-08T05:00:35.085Z,100.00
2024-03-08T05:03:01.811Z,100.00
2024-03-08T05:05:30.085Z,100.00
2024-03-08T05:07:56.674Z,100.00
2024-03-08T05:10:23.375Z,100.00
2024-03-08T05:12:49.907Z,100.00
2024-03-08T05:15:16.531Z,100.00
2024-03-08T05:17:43.236Z,100.00
2024-03-08T05:20:13.492Z,100.00
2024-03-08T05:22:41.531Z,100.00
2024-03-08T05:25:11.582Z,100.00
2024-03-08T05:27:38.607Z,100.00
2024-03-08T05:30:05.894Z,100.00
2024-03-08T05:32:32.932Z,100.00
2024-03-08T05:34:59.545Z,100.00
2024-03-08T05:37:26.053Z,100.00
2024-03-08T05:39:52.515Z,100.00
2024-03-08T05:42:18.992Z,100.00
2024-03-08T05:44:45.516Z,100.00
2024-03-08T05:47:12.084Z,100.00
2024-03-08T05:49:38.894Z,100.00
2024-03-08T05:52:05.755Z,100.00
2024-03-08T05:54:34.250Z,100.00
2024-03-08T05:57:00.859Z,100.00
2024-03-08T05:59:27.988Z,100.00
2024-03-08T06:01:54.573Z,100.00
2024-03-08T06:04:21.058Z,100.00
2024-03-08T06:06:50.400Z,100.00
2024-03-08T06:09:24.523Z,100.00
2024-03-08T06:11:52.792Z,100.00
2024-03-08T06:14:19.926Z,100.00
2024-03-08T06:16:47.746Z,100.00
2024-03-08T06:19:14.634Z,100.00
2024-03-08T06:21:42.072Z,100.00
2024-03-08T06:24:08.560Z,100.00
2024-03-08T06:26:37.957Z,100.00
2024-03-08T06:29:07.819Z,100.00
2024-03-08T06:31:34.437Z,100.00
2024-03-08T06:34:00.981Z,100.00
2024-03-08T06:36:27.826Z,100.00
2024-03-08T06:38:54.908Z,100.00
2024-03-08T06:41:21.579Z,100.00
2024-03-08T06:43:49.913Z,100.00
2024-03-08T06:46:16.963Z,100.00
2024-03-08T06:48:43.878Z,100.00
2024-03-08T06:51:12.194Z,100.00
2024-03-08T06:53:39.730Z,100.00
2024-03-08T06:56:06.534Z,100.00
2024-03-08T06:58:33.847Z,100.00
2024-03-08T07:01:02.053Z,100.00
2024-03-08T07:03:30.541Z,100.00
2024-03-08T07:05:59.420Z,100.00
2024-03-08T07:08:27.997Z,100.00
2024-03-08T07:10:55.280Z,100.00
2024-03-08T07:13:22.466Z,100.00
2024-03-08T07:15:49.129Z,100.00
2024-03-08T07:18:16.326Z,100.00
2024-03-08T07:20:44.566Z,100.00
2024-03-08T07:23:11.812Z,100.00
2024-03-08T07:25:40.257Z,100.00
2024-03-08T07:28:08.672Z,100.00
2024-03-08T07:30:45.509Z,100.00
2024-03-08T07:33:13.579Z,100.00
2024-03-08T07:35:41.769Z,100.00
2024-03-08T07:38:10.528Z,100.00
2024-03-08T07:40:40.311Z,100.00
2024-03-08T07:43:07.612Z,100.00
2024-03-08T07:45:34.325Z,100.00
2024-03-08T07:48:00.864Z,100.00
2024-03-08T07:50:27.467Z,100.00
2024-03-08T07:52:53.933Z,100.00
2024-03-08T07:55:20.553Z,100.00
2024-03-08T07:57:48.729Z,100.00
2024-03-08T08:00:18.890Z,100.00
2024-03-08T08:02:46.579Z,100.00
2024-03-08T08:05:14.486Z,100.00
2024-03-08T08:07:44.733Z,100.00
2024-03-08T08:10:19.426Z,100.00
2024-03-08T08:12:47.178Z,100.00
2024-03-08T08:15:14.013Z,100.00
2024-03-08T08:17:40.528Z,100.00
2024-03-08T08:20:07.309Z,100.00
2024-03-08T08:22:33.791Z,100.00
2024-03-08T08:25:00.258Z,100.00
2024-03-08T08:27:27.304Z,100.00
2024-03-08T08:29:53.795Z,100.00
2024-03-08T08:32:21.279Z,100.00
2024-03-08T08:34:47.807Z,100.00
2024-03-08T08:37:14.482Z,100.00
2024-03-08T08:39:40.942Z,100.00
2024-03-08T08:42:10.306Z,100.00
2024-03-08T08:44:36.991Z,100.00
2024-03-08T08:47:10.306Z,100.00
2024-03-08T08:49:39.652Z,100.00
2024-03-08T08:52:12.396Z,100.00
2024-03-08T08:54:43.788Z,100.00
2024-03-08T08:57:10.505Z,100.00
2024-03-08T08:59:37.090Z,100.00
2024-03-08T09:02:07.436Z,100.00
2024-03-08T09:04:34.055Z,100.00
2024-03-08T09:07:00.722Z,100.00
2024-03-08T09:09:27.201Z,100.00
2024-03-08T09:11:55.337Z,100.00
2024-03-08T09:14:21.957Z,100.00
2024-03-08T09:16:48.633Z,100.00
2024-03-08T09:19:16.115Z,100.00
2024-03-08T09:21:42.608Z,100.00
2024-03-08T09:24:09.255Z,100.00
2024-03-08T09:26:36.033Z,100.00
2024-03-08T09:29:02.589Z,100.00
2024-03-08T09:31:29.082Z,100.00
2024-03-08T09:33:55.569Z,100.00
2024-03-08T09:36:22.016Z,100.00
2024-03-08T09:38:49.800Z,100.00
2024-03-08T09:41:16.278Z,100.00
2024-03-08T09:43:42.796Z,100.00
2024-03-08T09:46:09.614Z,100.00
2024-03-08T09:48:36.285Z,99.90
2024-03-08T09:51:04.758Z,100.00
2024-03-08T09:53:31.604Z,99.66
2024-03-08T09:55:58.278Z,99.42
2024-03-08T09:58:33.514Z,99.74
2024-03-08T10:01:03.124Z,100.00
2024-03-08T10:03:30.552Z,99.52
2024-03-08T10:06:01.484Z,98.64
2024-03-08T10:08:30.509Z,98.07
2024-03-08T10:10:59.356Z,98.14
2024-03-08T10:13:30.964Z,98.27
2024-03-08T10:15:57.445Z,97.89
2024-03-08T10:18:24.133Z,97.38
2024-03-08T10:21:08.154Z,97.22
2024-03-08T10:23:34.994Z,97.31
2024-03-08T10:26:13.997Z,97.28
2024-03-08T10:28:40.509Z,96.67
2024-03-08T10:31:07.072Z,96.54
2024-03-08T10:33:34.530Z,96.72
2024-03-08T10:36:01.979Z,96.99
2024-03-08T10:38:33.803Z,96.87
2024-03-08T10:41:02.959Z,96.50
2024-03-08T10:43:38.235Z,96.14
2024-03-08T10:46:19.543Z,95.64
2024-03-08T10:48:48.412Z,94.77
2024-03-08T10:51:16.594Z,94.35
2024-03-08T10:53:45.486Z,93.92
2024-03-08T10:56:12.282Z,93.83
2024-03-08T10:58:39.795Z,94.06
2024-03-08T11:01:07.496Z,93.84
2024-03-08T11:03:46.559Z,93.37
2024-03-08T11:06:17.411Z,92.44
2024-03-08T11:08:45.146Z,92.68
2024-03-08T11:11:38.696Z,92.65
2024-03-08T11:14:06.008Z,92.83
2024-03-08T11:16:32.805Z,92.69
2024-03-08T11:19:07.035Z,91.69
2024-03-08T11:21:40.641Z,90.55
2024-03-08T11:24:17.433Z,90.65
2024-03-08T11:26:46.269Z,88.74
2024-03-08T11:29:37.669Z,88.42
2024-03-08T11:32:14.231Z,88.22
2024-03-08T11:34:44.414Z,89.55
2024-03-08T11:37:27.482Z,89.20
2024-03-08T11:40:00.003Z,89.43
2024-03-08T11:42:29.691Z,88.96
2024-03-08T11:44:56.341Z,88.14
2024-03-08T11:47:23.313Z,86.85
2024-03-08T11:49:50.171Z,86.22
2024-03-08T11:52:18.835Z,86.00
2024-03-08T11:54:58.192Z,86.55
2024-03-08T11:57:25.699Z,85.58
2024-03-08T11:59:56.167Z,83.98
2024-03-08T12:02:24.240Z,82.07
2024-03-08T12:04:58.889Z,79.07
2024-03-08T12:07:25.946Z,78.49
2024-03-08T12:10:22.750Z,76.98
2024-03-08T12:12:54.140Z,75.25
2024-03-08T12:15:21.443Z,75.30
2024-03-08T12:17:49.816Z,75.78
2024-03-08T12:20:17.606Z,76.10
2024-03-08T12:22:45.364Z,74.67
2024-03-08T12:25:13.672Z,75.89
2024-03-08T12:27:41.344Z,76.60
2024-03-08T12:30:26.898Z,75.55
2024-03-08T12:33:02.365Z,72.89
2024-03-08T12:35:30.249Z,72.21
2024-03-08T12:37:58.734Z,71.43
2024-03-08T12:40:30.134Z,71.65
2024-03-08T12:42:57.303Z,70.86
2024-03-08T12:45:25.269Z,70.29
2024-03-08T12:47:52.687Z,69.10
2024-03-08T12:50:19.348Z,69.07
2024-03-08T12:52:45.948Z,67.66
2024-03-08T12:55:13.534Z,67.36
2024-03-08T12:57:40.240Z,66.24
2024-03-08T13:00:07.341Z,67.32
2024-03-08T13:02:33.822Z,66.37
2024-03-08T13:05:00.509Z,66.09
2024-03-08T13:07:27.479Z,65.95
2024-03-08T13:09:55.425Z,65.69
2024-03-08T13:12:22.462Z,65.42
2024-03-08T13:14:49.133Z,64.21
2024-03-08T13:17:16.248Z,64.15
2024-03-08T13:19:45.412Z,63.65
2024-03-08T13:22:13.971Z,64.33
2024-03-08T13:24:41.940Z,63.39
2024-03-08T13:27:20.311Z,62.57
2024-03-08T13:29:50.224Z,62.03
2024-03-08T13:32:17.454Z,61.20
2024-03-08T13:34:46.243Z,61.48
2024-03-08T13:37:12.860Z,61.25
2024-03-08T13:39:42.295Z,61.90
2024-03-08T13:42:10.906Z,61.41
2024-03-08T13:44:37.975Z,61.07
2024-03-08T13:47:05.924Z,60.68
2024-03-08T13:49:33.057Z,60.13
2024-03-08T13:52:02.511Z,58.27
2024-03-08T13:54:31.750Z,57.82
2024-03-08T13:57:01.629Z,57.57
2024-03-08T13:59:30.473Z,56.96
2024-03-08T14:01:58.268Z,57.35
2024-03-08T14:04:25.221Z,57.84
2024-03-08T14:06:59.984Z,57.84
2024-03-08T14:09:27.421Z,57.67
2024-03-08T14:11:55.037Z,57.44
2024-03-08T14:14:24.208Z,56.62
2024-03-08T14:16:55.280Z,56.12
2024-03-08T14:19:22.065Z,55.29
2024-03-08T14:21:54.325Z,55.22
2024-03-08T14:24:21.264Z,54.97
2024-03-08T14:26:49.949Z,53.94
2024-03-08T14:29:16.635Z,54.70
2024-03-08T14:31:44.302Z,54.07
2024-03-08T14:34:11.423Z,54.61
2024-03-08T14:36:39.158Z,54.78
2024-03-08T14:39:05.660Z,54.80
2024-03-08T14:41:32.225Z,53.69
2024-03-08T14:43:58.801Z,53.76
2024-03-08T14:46:25.708Z,54.48
2024-03-08T14:48:52.629Z,54.73
2024-03-08T14:51:27.508Z,54.00
2024-03-08T14:53:55.616Z,53.28
2024-03-08T14:56:23.977Z,53.10
2024-03-08T14:58:50.680Z,53.71
2024-03-08T15:01:17.444Z,54.36
2024-03-08T15:03:43.996Z,53.61
2024-03-08T15:06:10.652Z,52.41
2024-03-08T15:08:38.188Z,52.73
2024-03-08T15:11:07.113Z,51.76
2024-03-08T15:13:42.301Z,51.76
2024-03-08T15:16:09.927Z,51.41
2024-03-08T15:18:37.479Z,50.63
2024-03-08T15:21:07.825Z,49.86
2024-03-08T15:23:37.697Z,47.81
2024-03-08T15:26:08.225Z,45.34
2024-03-08T15:28:38.443Z,43.42
2024-03-08T15:31:07.145Z,39.84
2024-03-08T15:33:35.165Z,34.63
2024-03-08T15:36:09.009Z,32.32
2024-03-08T15:38:35.570Z,30.98
2024-03-08T15:41:02.197Z,29.50
2024-03-08T15:43:28.844Z,28.86
2024-03-08T15:45:56.003Z,27.97
2024-03-08T15:48:22.615Z,27.97
2024-03-08T15:50:49.328Z,27.15
2024-03-08T15:53:16.605Z,26.84
2024-03-08T15:55:45.387Z,26.89
2024-03-08T15:58:14.084Z,25.52
2024-03-08T16:00:47.085Z,24.37
2024-03-08T16:03:15.801Z,24.03
2024-03-08T16:05:45.352Z,24.28
2024-03-08T16:08:22.384Z,23.86
2024-03-08T16:10:57.084Z,24.18
2024-03-08T16:13:25.682Z,23.70
2024-03-08T16:15:53.696Z,24.17
2024-03-08T16:18:22.386Z,24.52
2024-03-08T16:20:51.264Z,24.47
2024-03-08T16:23:17.872Z,25.13
2024-03-08T16:25:45.161Z,25.09
2024-03-08T16:28:12.728Z,25.15
2024-03-08T16:30:47.141Z,26.52
2024-03-08T16:33:14.852Z,27.41
2024-03-08T16:35:45.529Z,28.82
2024-03-08T16:38:15.868Z,31.07
2024-03-08T16:40:43.868Z,33.67
2024-03-08T16:43:12.354Z,35.83
2024-03-08T16:45:40.149Z,37.25
2024-03-08T16:48:08.068Z,38.96
2024-03-08T16:50:35.025Z,40.42
2024-03-08T16:53:02.090Z,42.94
2024-03-08T16:55:31.016Z,44.51
2024-03-08T16:57:57.709Z,46.26
2024-03-08T17:00:28.865Z,47.96
2024-03-08T17:02:55.845Z,49.38
2024-03-08T17:05:22.335Z,50.54
2024-03-08T17:07:52.764Z,51.62
2024-03-08T17:10:24.828Z,53.70
2024-03-08T17:12:56.661Z,53.97
2024-03-08T17:15:23.824Z,56.21
2024-03-08T17:17:52.082Z,56.65
2024-03-08T17:20:21.492Z,57.45
2024-03-08T17:22:55.226Z,58.76
2024-03-08T17:25:23.224Z,59.79
2024-03-08T17:27:51.881Z,59.78
2024-03-08T17:30:23.417Z,60.22
2024-03-08T17:32:54.904Z,60.68
2024-03-08T17:35:23.977Z,61.93
2024-03-08T17:37:52.431Z,62.69
2024-03-08T17:40:23.275Z,64.08
2024-03-08T17:42:49.734Z,63.86
2024-03-08T17:45:16.484Z,63.86
2024-03-08T17:47:42.980Z,63.87
2024-03-08T17:50:15.218Z,64.40
2024-03-08T17:52:43.237Z,65.27
2024-03-08T17:55:14.850Z,65.09
2024-03-08T17:57:49.116Z,65.39
2024-03-08T18:00:28.830Z,65.81
2024-03-08T18:02:56.670Z,66.77
2024-03-08T18:05:26.000Z,66.87
2024-03-08T18:07:53.525Z,66.97
2024-03-08T18:10:21.613Z,66.73
2024-03-08T18:12:52.030Z,67.33
2024-03-08T18:15:26.410Z,67.10
2024-03-08T18:17:54.452Z,67.07
2024-03-08T18:20:27.354Z,67.74
2024-03-08T18:22:54.087Z,67.98
2024-03-08T18:25:20.987Z,68.48
2024-03-08T18:27:47.572Z,68.74
2024-03-08T18:30:16.407Z,68.49
2024-03-08T18:32:48.440Z,68.57
2024-03-08T18:35:17.197Z,69.19
2024-03-08T18:37:43.862Z,68.55
2024-03-08T18:40:13.809Z,69.45
2024-03-08T18:42:41.323Z,69.63
2024-03-08T18:45:12.001Z,69.24
2024-03-08T18:47:39.654Z,69.06
2024-03-08T18:50:08.257Z,69.77
2024-03-08T18:52:37.371Z,69.15
2024-03-08T18:55:10.793Z,68.76
2024-03-08T18:57:44.904Z,68.85
2024-03-08T19:00:31.043Z,68.69
2024-03-08T19:03:00.893Z,68.63
2024-03-08T19:05:28.883Z,68.90
2024-03-08T19:07:57.096Z,68.07
2024-03-08T19:10:25.903Z,68.34
2024-03-08T19:12:54.152Z,69.15
2024-03-08T19:15:23.356Z,68.82
2024-03-08T19:17:52.324Z,69.30
2024-03-08T19:20:20.634Z,69.18
2024-03-08T19:22:48.784Z,69.26
2024-03-08T19:25:18.885Z,69.84
2024-03-08T19:27:45.858Z,69.09
2024-03-08T19:30:18.356Z,69.64
2024-03-08T19:32:45.837Z,69.38
2024-03-08T19:35:14.126Z,70.14
2024-03-08T19:37:44.907Z,69.72
2024-03-08T19:40:22.143Z,69.87
2024-03-08T19:42:50.274Z,69.86
2024-03-08T19:45:17.708Z,70.14
2024-03-08T19:47:44.876Z,70.70
2024-03-08T19:50:15.960Z,71.46
2024-03-08T19:52:46.589Z,71.36
2024-03-08T19:55:14.602Z,71.42
2024-03-08T19:57:42.958Z,71.91
2024-03-08T20:00:15.649Z,71.69
2024-03-08T20:02:43.896Z,71.95
2024-03-08T20:05:13.744Z,72.23
2024-03-08T20:07:44.688Z,72.10
2024-03-08T20:10:12.925Z,72.66
2024-03-08T20:12:40.970Z,72.63
2024-03-08T20:15:08.877Z,72.62
2024-03-08T20:17:37.421Z,73.26
2024-03-08T20:20:08.319Z,73.25
2024-03-08T20:22:34.902Z,73.03
2024-03-08T20:25:01.508Z,73.94
2024-03-08T20:27:30.545Z,73.44
2024-03-08T20:29:58.068Z,74.23
2024-03-08T20:32:24.532Z,74.15
2024-03-08T20:34:51.109Z,74.19
2024-03-08T20:37:17.974Z,74.05
2024-03-08T20:39:47.492Z,75.02
2024-03-08T20:42:14.040Z,74.61
2024-03-08T20:44:41.028Z,75.30
2024-03-08T20:47:07.597Z,75.21
2024-03-08T20:49:34.282Z,75.94
2024-03-08T20:52:00.918Z,75.69
2024-03-08T20:54:27.472Z,75.43
2024-03-08T20:56:54.963Z,75.26
2024-03-08T20:59:21.537Z,75.23
2024-03-08T21:01:48.079Z,75.89
2024-03-08T21:04:14.767Z,75.62
2024-03-08T21:06:44.950Z,76.23
2024-03-08T21:09:12.942Z,76.31
2024-03-08T21:11:41.277Z,76.59
2024-03-08T21:14:08.443Z,75.84
2024-03-08T21:16:35.101Z,76.33
2024-03-08T21:19:01.724Z,76.13
2024-03-08T21:21:28.191Z,76.68
2024-03-08T21:23:55.287Z,76.95
2024-03-08T21:26:21.810Z,77.46
2024-03-08T21:28:48.722Z,77.61
2024-03-08T21:31:15.237Z,77.83
2024-03-08T21:33:41.762Z,77.76
2024-03-08T21:36:09.058Z,78.41
2024-03-08T21:38:37.323Z,78.35
2024-03-08T21:41:09.196Z,79.06
2024-03-08T21:43:36.427Z,79.12
2024-03-08T21:46:03.710Z,79.53
2024-03-08T21:48:31.121Z,79.21
2024-03-08T21:50:57.771Z,79.35
2024-03-08T21:53:30.675Z,79.89
2024-03-08T21:56:01.891Z,79.89
2024-03-08T21:58:28.488Z,79.91
2024-03-08T22:00:54.981Z,80.25
2024-03-08T22:03:23.457Z,79.94
2024-03-08T22:05:50.701Z,80.59
2024-03-08T22:08:17.214Z,80.35
2024-03-08T22:10:43.854Z,80.99
2024-03-08T22:13:10.386Z,80.75
2024-03-08T22:15:37.173Z,80.37
2024-03-08T22:18:03.751Z,80.49
2024-03-08T22:20:33.631Z,80.43
2024-03-08T22:23:03.036Z,80.84
2024-03-08T22:25:31.789Z,80.71
2024-03-08T22:27:58.852Z,81.22
2024-03-08T22:30:25.611Z,81.11
2024-03-08T22:32:56.825Z,80.46
2024-03-08T22:35:25.564Z,80.90
2024-03-08T22:37:52.967Z,80.69
2024-03-08T22:40:24.593Z,81.35
2024-03-08T22:42:54.751Z,81.52
2024-03-08T22:45:21.777Z,81.57
2024-03-08T22:47:48.524Z,81.76
2024-03-08T22:50:16.716Z,82.73
2024-03-08T22:52:49.105Z,82.16
2024-03-08T22:55:22.686Z,82.04
2024-03-08T22:57:50.041Z,81.98
2024-03-08T23:00:23.759Z,82.34
2024-03-08T23:02:51.138Z,83.03
2024-03-08T23:05:17.769Z,82.91
2024-03-08T23:07:44.369Z,83.10
2024-03-08T23:10:13.671Z,82.85
2024-03-08T23:12:40.829Z,83.56
2024-03-08T23:15:11.498Z,83.65
2024-03-08T23:17:59.702Z,83.89
2024-03-08T23:20:33.206Z,83.68
2024-03-08T23:23:04.690Z,84.32
2024-03-08T23:25:31.701Z,84.08
2024-03-08T23:28:01.676Z,84.14
2024-03-08T23:30:29.586Z,84.38
2024-03-08T23:32:56.511Z,84.49
2024-03-08T23:35:23.151Z,84.58
2024-03-08T23:37:51.346Z,84.38
2024-03-08T23:40:20.097Z,84.52
2024-03-08T23:42:47.957Z,84.36
2024-03-08T23:45:20.909Z,84.44
2024-03-08T23:47:52.057Z,84.85
2024-03-08T23:50:23.503Z,84.77
2024-03-08T23:52:53.926Z,84.77
2024-03-08T23:55:27.906Z,85.19
2024-03-08T23:57:55.595Z,85.07
